createdAt,value
2018-06-08T00:00:15.871Z,98.30
2018-06-08T00:02:45.535Z,98.40
2018-06-08T00:05:14.640Z,98.30
2018-06-08T00:07:43.661Z,98.50
2018-06-08T00:10:12.859Z,98.90
2018-06-08T00:12:41.899Z,99.20
2018-06-08T00:15:10.930Z,99.60
2018-06-08T00:17:39.982Z,99.50
2018-06-08T00:20:09.051Z,99.60
2018-06-08T00:22:38.138Z,99.70
2018-06-08T00:25:07.192Z,99.90
2018-06-08T00:27:36.219Z,99.90
2018-06-08T00:30:05.688Z,99.90
2018-06-08T00:32:34.709Z,99.90
2018-06-08T00:35:03.829Z,99.90
2018-06-08T00:37:32.859Z,99.90
2018-06-08T00:40:01.910Z,99.90
2018-06-08T00:42:30.937Z,99.90
2018-06-08T00:45:00.003Z,99.90
2018-06-08T00:47:29.061Z,99.90
2018-06-08T00:49:58.118Z,99.90
2018-06-08T00:52:27.130Z,99.90
2018-06-08T00:54:56.167Z,99.90
2018-06-08T00:57:25.193Z,99.90
2018-06-08T00:59:54.240Z,99.90
2018-06-08T01:02:23.274Z,99.90
2018-06-08T01:04:52.311Z,99.90
2018-06-08T01:07:21.387Z,99.90
2018-06-08T01:09:50.436Z,99.90
2018-06-08T01:12:19.467Z,99.90
2018-06-08T01:14:48.515Z,99.90
2018-06-08T01:17:17.543Z,99.90
2018-06-08T01:19:46.932Z,99.90
2018-06-08T01:22:15.972Z,99.90
2018-06-08T01:24:45.029Z,99.90
2018-06-08T01:27:14.049Z,99.90
2018-06-08T01:29:43.109Z,99.90
2018-06-08T01:32:12.135Z,99.90
2018-06-08T01:34:41.157Z,99.90
2018-06-08T01:37:10.220Z,99.90
2018-06-08T01:39:39.248Z,99.90
2018-06-08T01:42:08.306Z,99.90
2018-06-08T01:44:37.331Z,99.90
2018-06-08T01:47:06.382Z,99.90
2018-06-08T01:49:35.459Z,99.90
2018-06-08T01:52:04.531Z,99.90
2018-06-08T01:54:33.552Z,99.90
2018-06-08T01:57:02.601Z,99.90
2018-06-08T01:59:32.160Z,99.90
2018-06-08T02:02:01.211Z,99.90
2018-06-08T02:04:30.237Z,99.90
2018-06-08T02:06:59.338Z,99.90
2018-06-08T02:09:28.461Z,99.90
2018-06-08T02:11:57.556Z,99.90
2018-06-08T02:14:26.574Z,99.90
2018-06-08T02:16:55.642Z,99.90
2018-06-08T02:19:24.968Z,99.90
2018-06-08T02:21:54.040Z,99.90
2018-06-08T02:24:23.058Z,99.90
2018-06-08T02:26:52.108Z,99.90
2018-06-08T02:29:21.126Z,99.90
2018-06-08T02:31:50.171Z,99.90
2018-06-08T02:34:19.194Z,99.90
2018-06-08T02:36:48.235Z,99.90
2018-06-08T02:39:17.270Z,99.90
2018-06-08T02:41:46.320Z,99.90
2018-06-08T02:44:15.334Z,99.90
2018-06-08T02:46:44.384Z,99.90
2018-06-08T02:49:13.417Z,99.90
2018-06-08T02:51:42.460Z,99.90
2018-06-08T02:54:11.479Z,99.90
2018-06-08T02:56:41.044Z,99.90
2018-06-08T02:59:10.059Z,99.90
2018-06-08T03:01:39.118Z,99.90
2018-06-08T03:04:08.159Z,99.90
2018-06-08T03:09:07.644Z,99.90
2018-06-08T03:11:36.687Z,99.90
2018-06-08T03:14:05.760Z,99.90
2018-06-08T03:16:34.823Z,99.90
2018-06-08T03:19:03.859Z,99.90
2018-06-08T03:21:32.907Z,99.90
2018-06-08T03:24:01.949Z,99.90
2018-06-08T03:26:30.985Z,99.90
2018-06-08T03:29:00.008Z,99.90
2018-06-08T03:31:29.057Z,99.90
2018-06-08T03:33:58.068Z,99.90
2018-06-08T03:36:27.117Z,99.90
2018-06-08T03:38:56.336Z,99.90
2018-06-08T03:41:25.404Z,99.90
2018-06-08T03:43:54.443Z,99.90
2018-06-08T03:46:23.480Z,99.90
2018-06-08T03:48:52.493Z,99.90
2018-06-08T03:53:50.196Z,99.90
2018-06-08T03:56:19.211Z,99.90
2018-06-08T03:58:48.267Z,99.90
2018-06-08T04:01:17.300Z,99.90
2018-06-08T04:03:46.355Z,99.90
2018-06-08T04:06:15.380Z,99.90
2018-06-08T04:08:44.483Z,99.90
2018-06-08T04:11:13.512Z,99.90
2018-06-08T04:13:42.580Z,99.90
2018-06-08T04:16:11.587Z,99.90
2018-06-08T04:18:40.656Z,99.90
2018-06-08T04:21:09.689Z,99.90
2018-06-08T04:23:38.748Z,99.90
2018-06-08T04:26:07.767Z,99.90
2018-06-08T04:28:36.820Z,99.90
2018-06-08T04:31:05.850Z,99.90
2018-06-08T04:33:34.898Z,99.90
2018-06-08T04:36:04.084Z,99.90
2018-06-08T04:38:33.136Z,99.90
2018-06-08T04:41:02.175Z,99.90
2018-06-08T04:43:31.220Z,99.90
2018-06-08T04:46:00.283Z,99.90
2018-06-08T04:48:29.338Z,99.90
2018-06-08T04:50:58.368Z,99.90
2018-06-08T04:53:27.407Z,99.90
2018-06-08T04:55:56.428Z,99.90
2018-06-08T04:58:25.472Z,99.90
2018-06-08T05:00:54.595Z,99.90
2018-06-08T05:03:23.650Z,99.90
2018-06-08T05:05:52.667Z,99.90
2018-06-08T05:08:21.828Z,99.90
2018-06-08T05:10:50.845Z,99.90
2018-06-08T05:13:20.983Z,99.90
2018-06-08T05:15:50.025Z,99.90
2018-06-08T05:18:19.068Z,99.90
2018-06-08T05:20:48.099Z,99.90
2018-06-08T05:23:17.244Z,99.90
2018-06-08T05:25:46.281Z,99.90
2018-06-08T05:30:44.024Z,99.70
2018-06-08T05:33:13.103Z,99.40
2018-06-08T05:35:42.140Z,99.40
2018-06-08T05:38:11.202Z,98.90
2018-06-08T05:40:40.254Z,98.20
2018-06-08T05:43:09.431Z,98.10
2018-06-08T05:45:38.497Z,98.70
2018-06-08T05:48:07.597Z,98.40
2018-06-08T05:50:36.662Z,97.20
2018-06-08T05:53:05.724Z,97.60
2018-06-08T05:55:34.765Z,97.20
2018-06-08T05:58:03.872Z,96.90
2018-06-08T06:00:32.964Z,97.30
2018-06-08T06:03:02.061Z,97.40
2018-06-08T06:05:31.161Z,97.10
2018-06-08T06:08:00.314Z,96.80
2018-06-08T06:10:29.348Z,96.90
2018-06-08T06:12:58.411Z,96.70
2018-06-08T06:15:27.435Z,96.30
2018-06-08T06:17:56.492Z,96.00
2018-06-08T06:20:25.566Z,95.90
2018-06-08T06:22:54.643Z,95.20
2018-06-08T06:25:23.725Z,95.00
2018-06-08T06:27:52.825Z,94.00
2018-06-08T06:30:21.911Z,93.10
2018-06-08T06:32:50.982Z,92.90
2018-06-08T06:35:20.071Z,92.30
2018-06-08T06:37:49.130Z,92.40
2018-06-08T06:40:18.176Z,92.50
2018-06-08T06:42:47.196Z,91.80
2018-06-08T06:45:16.572Z,91.50
2018-06-08T06:47:46.090Z,91.40
2018-06-08T06:50:15.237Z,90.90
2018-06-08T06:52:44.352Z,90.60
2018-06-08T06:55:13.472Z,89.70
2018-06-08T06:57:43.200Z,88.60
2018-06-08T07:00:12.271Z,88.50
2018-06-08T07:02:41.398Z,87.90
2018-06-08T07:05:10.923Z,88.50
2018-06-08T07:07:39.958Z,87.00
2018-06-08T07:10:09.021Z,86.00
2018-06-08T07:12:38.056Z,87.40
2018-06-08T07:15:07.215Z,86.40
2018-06-08T07:17:36.396Z,85.00
2018-06-08T07:20:05.451Z,84.40
2018-06-08T07:22:34.815Z,82.80
2018-06-08T07:25:03.948Z,83.50
2018-06-08T07:27:33.689Z,82.00
2018-06-08T07:35:02.535Z,76.30
2018-06-08T07:37:32.383Z,75.60
2018-06-08T07:40:02.464Z,77.10
2018-06-08T07:42:32.945Z,75.90
2018-06-08T07:45:02.054Z,74.70
2018-06-08T07:47:31.349Z,74.00
2018-06-08T07:50:00.479Z,72.70
2018-06-08T07:52:29.838Z,73.20
2018-06-08T07:54:59.098Z,72.60
2018-06-08T08:02:26.460Z,71.50
2018-06-08T08:04:56.305Z,68.80
2018-06-08T08:07:26.285Z,70.30
2018-06-08T08:09:55.352Z,69.70
2018-06-08T08:12:24.412Z,68.20
2018-06-08T08:14:54.441Z,67.00
2018-06-08T08:17:24.297Z,67.80
2018-06-08T08:19:53.459Z,68.60
2018-06-08T08:22:22.550Z,68.80
2018-06-08T08:24:51.603Z,66.20
2018-06-08T08:27:20.797Z,66.90
2018-06-08T08:29:49.902Z,67.40
2018-06-08T08:32:18.923Z,65.80
2018-06-08T08:34:47.971Z,66.30
2018-06-08T08:37:17.020Z,62.60
2018-06-08T08:39:46.106Z,62.70
2018-06-08T08:42:15.599Z,62.80
2018-06-08T08:44:45.041Z,59.50
2018-06-08T08:47:14.105Z,62.10
2018-06-08T08:49:43.156Z,63.80
2018-06-08T08:52:12.191Z,58.40
2018-06-08T08:54:41.279Z,58.30
2018-06-08T08:57:10.688Z,58.40
2018-06-08T09:02:08.538Z,57.80
2018-06-08T09:04:37.562Z,56.60
2018-06-08T09:07:06.600Z,54.20
2018-06-08T09:09:35.624Z,54.60
2018-06-08T09:12:04.719Z,52.50
2018-06-08T09:14:33.739Z,50.30
2018-06-08T09:17:02.860Z,50.00
2018-06-08T09:19:31.879Z,52.00
2018-06-08T09:22:00.952Z,49.40
2018-06-08T09:24:29.973Z,48.50
2018-06-08T09:26:59.218Z,49.30
2018-06-08T09:29:28.250Z,48.80
2018-06-08T09:31:57.309Z,47.30
2018-06-08T09:34:26.466Z,47.20
2018-06-08T09:36:55.560Z,47.20
2018-06-08T09:39:24.665Z,47.80
2018-06-08T09:41:53.739Z,47.40
2018-06-08T09:44:22.787Z,45.80
2018-06-08T09:46:51.879Z,49.40
2018-06-08T09:49:21.047Z,47.80
2018-06-08T09:51:50.111Z,49.50
2018-06-08T09:54:19.676Z,48.40
2018-06-08T09:56:48.780Z,47.70
2018-06-08T09:59:17.911Z,48.40
2018-06-08T10:01:47.272Z,48.30
2018-06-08T10:04:16.447Z,46.60
2018-06-08T10:06:45.608Z,49.20
2018-06-08T10:09:14.723Z,48.60
2018-06-08T10:11:43.809Z,48.50
2018-06-08T10:14:12.913Z,47.50
2018-06-08T10:16:42.029Z,49.30
2018-06-08T10:19:11.112Z,48.10
2018-06-08T10:21:40.215Z,47.80
2018-06-08T10:24:09.297Z,46.60
2018-06-08T10:26:38.379Z,48.00
2018-06-08T10:29:07.569Z,48.20
2018-06-08T10:31:36.637Z,47.80
2018-06-08T10:34:05.802Z,48.50
2018-06-08T10:36:34.876Z,47.90
2018-06-08T10:39:06.209Z,49.80
2018-06-08T10:41:35.424Z,48.60
2018-06-08T10:44:04.500Z,48.60
2018-06-08T10:46:33.542Z,48.30
2018-06-08T10:49:02.593Z,48.60
2018-06-08T10:51:31.639Z,47.30
2018-06-08T10:54:00.730Z,47.50
2018-06-08T10:56:29.856Z,48.00
2018-06-08T10:58:58.952Z,47.90
2018-06-08T11:01:28.129Z,47.30
2018-06-08T11:03:57.235Z,47.20
2018-06-08T11:06:26.268Z,48.70
2018-06-08T11:08:55.326Z,47.80
2018-06-08T11:11:24.374Z,47.10
2018-06-08T11:13:53.501Z,47.50
2018-06-08T11:16:22.534Z,45.90
2018-06-08T11:18:51.589Z,46.80
2018-06-08T11:21:20.627Z,45.00
2018-06-08T11:23:49.705Z,46.00
2018-06-08T11:26:18.844Z,47.20
2018-06-08T11:28:47.943Z,48.10
2018-06-08T11:31:17.037Z,46.90
2018-06-08T11:33:46.094Z,46.50
2018-06-08T11:36:15.148Z,46.30
2018-06-08T11:38:44.244Z,46.70
2018-06-08T11:41:13.275Z,45.30
2018-06-08T11:43:42.322Z,46.30
2018-06-08T11:46:11.354Z,47.60
2018-06-08T11:48:40.413Z,46.80
2018-06-08T11:51:09.429Z,46.80
2018-06-08T11:53:38.499Z,47.60
2018-06-08T11:56:07.519Z,45.20
2018-06-08T11:58:36.543Z,45.00
2018-06-08T12:01:05.596Z,45.50
2018-06-08T12:03:34.632Z,45.90
2018-06-08T12:06:03.693Z,45.70
2018-06-08T12:08:32.709Z,45.20
2018-06-08T12:11:01.755Z,45.40
2018-06-08T12:13:30.795Z,45.40
2018-06-08T12:15:59.866Z,45.40
2018-06-08T12:18:28.927Z,45.90
2018-06-08T12:20:57.984Z,46.90
2018-06-08T12:23:27.147Z,44.40
2018-06-08T12:25:56.228Z,44.80
2018-06-08T12:28:25.251Z,45.20
2018-06-08T12:30:54.307Z,45.50
2018-06-08T12:33:23.336Z,44.00
2018-06-08T12:35:52.391Z,44.60
2018-06-08T12:38:21.411Z,45.60
2018-06-08T12:40:50.510Z,44.80
2018-06-08T12:45:48.207Z,44.50
2018-06-08T12:48:17.231Z,44.50
2018-06-08T12:50:46.347Z,44.50
2018-06-08T12:53:15.372Z,45.50
2018-06-08T12:55:44.500Z,43.60
2018-06-08T12:58:13.469Z,44.30
2018-06-08T13:00:42.518Z,45.50
2018-06-08T13:03:11.785Z,45.80
2018-06-08T13:05:40.874Z,45.80
2018-06-08T13:08:09.916Z,45.50
2018-06-08T13:10:39.014Z,45.00
2018-06-08T13:13:08.046Z,44.80
2018-06-08T13:15:37.105Z,45.40
2018-06-08T13:18:06.149Z,44.60
2018-06-08T13:20:35.219Z,44.80
2018-06-08T13:23:04.264Z,43.40
2018-06-08T13:25:33.359Z,44.30
2018-06-08T13:28:02.459Z,44.80
2018-06-08T13:30:31.535Z,45.50
2018-06-08T13:33:00.820Z,44.90
2018-06-08T13:35:29.909Z,44.30
2018-06-08T13:38:05.472Z,43.50
2018-06-08T13:40:34.561Z,43.50
2018-06-08T13:43:03.619Z,44.00
2018-06-08T13:48:03.231Z,43.10
2018-06-08T13:50:32.375Z,43.40
2018-06-08T13:53:01.499Z,44.50
2018-06-08T13:55:30.616Z,44.00
2018-06-08T13:57:59.666Z,43.00
2018-06-08T14:00:28.711Z,43.80
2018-06-08T14:02:57.791Z,43.40
2018-06-08T14:05:26.925Z,43.80
2018-06-08T14:07:56.069Z,44.50
2018-06-08T14:10:25.321Z,43.90
2018-06-08T14:12:54.480Z,43.80
2018-06-08T14:15:23.528Z,42.00
2018-06-08T14:17:52.711Z,43.10
2018-06-08T14:20:21.884Z,43.20
2018-06-08T14:22:51.209Z,41.70
2018-06-08T14:27:49.088Z,43.30
2018-06-08T14:30:18.191Z,43.80
2018-06-08T14:32:47.668Z,43.20
2018-06-08T14:35:16.771Z,43.30
2018-06-08T14:37:45.795Z,41.40
2018-06-08T14:40:14.852Z,42.10
2018-06-08T14:42:43.872Z,42.10
2018-06-08T14:45:12.931Z,42.80
2018-06-08T14:47:42.402Z,42.00
2018-06-08T14:50:11.443Z,42.40
2018-06-08T14:52:40.512Z,41.70
2018-06-08T14:55:09.532Z,42.30
2018-06-08T14:57:38.594Z,42.10
2018-06-08T15:00:07.644Z,42.00
2018-06-08T15:02:36.715Z,41.60
2018-06-08T15:05:05.763Z,41.70
2018-06-08T15:07:34.806Z,42.40
2018-06-08T15:10:04.324Z,41.50
2018-06-08T15:12:33.359Z,40.90
2018-06-08T15:15:02.400Z,40.90
2018-06-08T15:17:31.475Z,42.10
2018-06-08T15:20:00.515Z,41.80
2018-06-08T15:22:29.588Z,41.60
2018-06-08T15:24:58.619Z,41.80
2018-06-08T15:27:27.776Z,41.40
2018-06-08T15:29:56.841Z,41.80
2018-06-08T15:32:25.912Z,41.10
2018-06-08T15:34:55.041Z,41.20
2018-06-08T15:37:24.107Z,42.00
2018-06-08T15:39:53.127Z,41.60
2018-06-08T15:42:22.183Z,41.90
2018-06-08T15:44:51.213Z,41.60
2018-06-08T15:47:20.252Z,40.90
2018-06-08T15:49:49.355Z,40.70
2018-06-08T15:52:18.377Z,41.30
2018-06-08T15:54:47.441Z,41.60
2018-06-08T15:57:16.497Z,41.80
2018-06-08T15:59:45.548Z,42.20
2018-06-08T16:02:14.607Z,41.90
2018-06-08T16:09:40.988Z,42.00
2018-06-08T16:17:07.355Z,41.40
2018-06-08T16:19:36.411Z,40.50
2018-06-08T16:22:05.462Z,40.60
2018-06-08T16:24:34.556Z,40.70
2018-06-08T16:27:03.602Z,40.70
2018-06-08T16:29:32.650Z,41.20
2018-06-08T16:32:01.685Z,41.90
2018-06-08T16:34:30.738Z,40.80
2018-06-08T16:36:59.772Z,41.80
2018-06-08T16:39:28.828Z,41.60
2018-06-08T16:42:00.892Z,42.00
2018-06-08T16:44:30.908Z,42.00
2018-06-08T16:46:59.953Z,43.10
2018-06-08T16:49:29.317Z,42.80
2018-06-08T16:51:58.645Z,43.20
2018-06-08T16:54:28.022Z,44.10
2018-06-08T16:56:57.051Z,45.00
2018-06-08T16:59:26.111Z,45.50
2018-06-08T17:01:55.990Z,44.30
2018-06-08T17:04:26.791Z,44.20
2018-06-08T17:06:55.945Z,44.00
2018-06-08T17:09:25.136Z,43.70
2018-06-08T17:11:54.185Z,43.80
2018-06-08T17:14:23.290Z,44.10
2018-06-08T17:16:52.694Z,43.90
2018-06-08T17:19:21.763Z,44.20
2018-06-08T17:21:50.843Z,44.40
2018-06-08T17:24:20.077Z,44.50
2018-06-08T17:26:49.117Z,44.70
2018-06-08T17:29:18.177Z,44.90
2018-06-08T17:31:47.216Z,45.40
2018-06-08T17:34:16.264Z,45.40
2018-06-08T17:39:13.960Z,46.80
2018-06-08T17:41:44.291Z,47.00
2018-06-08T17:44:13.375Z,47.50
2018-06-08T17:46:42.412Z,47.90
2018-06-08T17:49:11.440Z,47.50
2018-06-08T17:51:40.520Z,47.90
2018-06-08T17:54:09.585Z,48.20
2018-06-08T17:56:38.647Z,48.00
2018-06-08T17:59:08.259Z,48.60
2018-06-08T18:01:37.330Z,49.10
2018-06-08T18:04:06.536Z,49.50
2018-06-08T18:06:35.820Z,50.10
2018-06-08T18:09:07.244Z,50.20
2018-06-08T18:11:36.401Z,50.20
2018-06-08T18:14:05.592Z,50.30
2018-06-08T18:16:34.686Z,50.10
2018-06-08T18:19:03.891Z,50.30
2018-06-08T18:21:32.948Z,50.50
2018-06-08T18:24:02.302Z,50.40
2018-06-08T18:26:31.367Z,50.20
2018-06-08T18:29:00.444Z,50.10
2018-06-08T18:31:29.512Z,50.30
2018-06-08T18:33:58.553Z,50.20
2018-06-08T18:36:27.736Z,50.40
2018-06-08T18:38:56.816Z,50.30
2018-06-08T18:41:25.884Z,50.50
2018-06-08T18:43:54.911Z,50.40
2018-06-08T18:46:23.960Z,50.20
2018-06-08T18:48:53.916Z,50.50
2018-06-08T18:51:23.001Z,50.50
2018-06-08T18:53:52.089Z,50.40
2018-06-08T18:56:21.161Z,50.20
2018-06-08T18:58:50.199Z,50.40
2018-06-08T19:01:19.410Z,50.50
2018-06-08T19:03:48.423Z,50.70
2018-06-08T19:06:17.491Z,50.70
2018-06-08T19:08:46.559Z,51.10
2018-06-08T19:11:15.651Z,51.40
2018-06-08T19:13:44.672Z,51.50
2018-06-08T19:16:13.719Z,51.60
2018-06-08T19:18:42.835Z,52.00
2018-06-08T19:21:11.912Z,52.00
2018-06-08T19:23:40.973Z,51.70
2018-06-08T19:26:10.904Z,51.80
2018-06-08T19:28:39.979Z,51.60
2018-06-08T19:31:09.016Z,51.50
2018-06-08T19:33:38.088Z,51.50
2018-06-08T19:36:07.148Z,51.30
2018-06-08T19:38:36.166Z,51.30
2018-06-08T19:41:05.216Z,51.10
2018-06-08T19:43:34.243Z,51.00
2018-06-08T19:46:03.384Z,51.10
2018-06-08T19:48:32.448Z,51.00
2018-06-08T19:51:01.499Z,51.00
2018-06-08T19:53:30.526Z,51.40
2018-06-08T19:55:59.579Z,51.60
2018-06-08T19:58:28.747Z,51.90
2018-06-08T20:00:57.799Z,52.00
2018-06-08T20:03:26.899Z,52.20
2018-06-08T20:05:55.989Z,52.60
2018-06-08T20:08:25.008Z,52.70
2018-06-08T20:10:54.148Z,52.80
2018-06-08T20:13:23.163Z,53.10
2018-06-08T20:15:52.199Z,53.10
2018-06-08T20:18:21.292Z,53.10
2018-06-08T20:20:50.353Z,53.40
2018-06-08T20:23:19.459Z,53.60
2018-06-08T20:25:48.535Z,53.80
2018-06-08T20:28:17.701Z,54.70
2018-06-08T20:30:46.863Z,54.70
2018-06-08T20:33:15.924Z,55.10
2018-06-08T20:35:44.949Z,55.60
2018-06-08T20:38:14.001Z,55.80
2018-06-08T20:40:43.027Z,56.60
2018-06-08T20:43:12.067Z,56.90
2018-06-08T20:45:41.099Z,57.20
2018-06-08T20:48:10.165Z,57.40
2018-06-08T20:50:39.199Z,58.00
2018-06-08T20:53:08.252Z,58.60
2018-06-08T20:55:37.291Z,58.70
2018-06-08T21:00:35.096Z,59.60
2018-06-08T21:03:04.161Z,60.50
2018-06-08T21:05:33.211Z,62.10
2018-06-08T21:08:02.274Z,63.10
2018-06-08T21:10:31.324Z,62.90
2018-06-08T21:13:00.384Z,63.20
2018-06-08T21:15:29.424Z,64.00
2018-06-08T21:17:58.478Z,64.20
2018-06-08T21:20:27.528Z,64.50
2018-06-08T21:22:56.603Z,65.00
2018-06-08T21:25:25.641Z,65.50
2018-06-08T21:27:54.693Z,66.20
2018-06-08T21:30:23.748Z,66.90
2018-06-08T21:32:52.806Z,67.60
2018-06-08T21:35:21.857Z,67.90
2018-06-08T21:37:50.920Z,67.80
2018-06-08T21:40:19.999Z,68.40
2018-06-08T21:42:49.068Z,67.80
2018-06-08T21:45:18.093Z,68.00
2018-06-08T21:47:47.232Z,68.50
2018-06-08T21:50:16.280Z,68.30
2018-06-08T21:52:45.423Z,68.00
2018-06-08T21:55:14.451Z,68.60
2018-06-08T21:57:43.536Z,68.60
2018-06-08T22:00:12.591Z,69.10
2018-06-08T22:02:41.664Z,69.70
2018-06-08T22:05:10.695Z,69.70
2018-06-08T22:07:39.761Z,70.50
2018-06-08T22:10:08.817Z,70.60
2018-06-08T22:12:37.889Z,71.00
2018-06-08T22:15:07.120Z,71.70
2018-06-08T22:17:36.208Z,72.10
2018-06-08T22:20:05.357Z,71.70
2018-06-08T22:22:34.460Z,72.10
2018-06-08T22:25:03.626Z,72.10
2018-06-08T22:27:32.927Z,72.60
2018-06-08T22:30:02.085Z,72.30
2018-06-08T22:32:31.171Z,72.30
2018-06-08T22:35:00.271Z,73.00
2018-06-08T22:37:29.311Z,73.00
2018-06-08T22:39:58.335Z,73.40
2018-06-08T22:42:27.483Z,73.00
2018-06-08T22:44:56.543Z,72.90
2018-06-08T22:47:25.598Z,73.00
2018-06-08T22:49:54.737Z,72.90
2018-06-08T22:52:23.819Z,72.50
2018-06-08T22:54:52.882Z,74.00
2018-06-08T22:57:22.029Z,74.20
2018-06-08T22:59:51.160Z,73.70
2018-06-08T23:02:20.207Z,74.40
2018-06-08T23:04:49.252Z,74.90
2018-06-08T23:09:46.980Z,75.90
2018-06-08T23:12:16.081Z,75.90
2018-06-08T23:14:45.130Z,77.60
2018-06-08T23:17:14.176Z,77.50
2018-06-08T23:19:43.228Z,78.10
2018-06-08T23:22:12.280Z,78.20
2018-06-08T23:24:41.348Z,79.30
2018-06-08T23:27:10.376Z,79.60
2018-06-08T23:29:39.432Z,80.00
2018-06-08T23:32:08.460Z,80.70
2018-06-08T23:34:37.546Z,81.30
2018-06-08T23:37:06.612Z,81.60
2018-06-08T23:39:35.680Z,82.40
2018-06-08T23:42:04.756Z,82.90
2018-06-08T23:44:33.826Z,83.70
2018-06-08T23:47:02.855Z,84.50
2018-06-08T23:49:31.904Z,85.10
2018-06-08T23:52:00.939Z,86.20
2018-06-08T23:54:30.002Z,86.60
2018-06-08T23:56:59.056Z,86.90
2018-06-08T23:59:28.207Z,89.00
